createdAt,value
2023-03-28T00:02:05.253Z,70.00
2023-03-28T00:04:53.641Z,69.70
2023-03-28T00:07:42.537Z,69.80
2023-03-28T00:10:30.955Z,69.80
2023-03-28T00:13:21.371Z,70.30
2023-03-28T00:16:12.967Z,69.50
2023-03-28T00:19:05.875Z,69.60
2023-03-28T00:21:54.878Z,69.10
2023-03-28T00:24:44.428Z,69.60
2023-03-28T00:27:33.488Z,70.20
2023-03-28T00:30:21.958Z,69.90
2023-03-28T00:33:10.421Z,70.80
2023-03-28T00:36:00.771Z,71.70
2023-03-28T00:38:49.827Z,71.60
2023-03-28T00:41:41.622Z,72.00
2023-03-28T00:44:47.719Z,72.50
2023-03-28T00:47:41.891Z,73.20
2023-03-28T00:50:36.608Z,73.30
2023-03-28T00:53:27.482Z,74.20
2023-03-28T00:56:18.832Z,75.10
2023-03-28T00:59:10.775Z,75.10
2023-03-28T01:01:59.511Z,75.20
2023-03-28T01:04:57.741Z,75.20
2023-03-28T01:07:52.521Z,75.70
2023-03-28T01:10:42.631Z,76.00
2023-03-28T01:13:34.867Z,76.10
2023-03-28T01:16:24.202Z,76.30
2023-03-28T01:19:26.764Z,76.40
2023-03-28T01:22:38.173Z,75.90
2023-03-28T01:26:06.577Z,76.10
2023-03-28T01:29:40.541Z,76.70
2023-03-28T01:33:04.979Z,77.20
2023-03-28T01:36:34.380Z,77.90
2023-03-28T01:39:39.505Z,78.10
2023-03-28T01:42:33.417Z,77.50
2023-03-28T01:45:29.829Z,78.20
2023-03-28T01:48:26.044Z,78.40
2023-03-28T01:51:24.744Z,79.10
2023-03-28T01:54:21.869Z,79.20
2023-03-28T01:57:15.938Z,79.30
2023-03-28T02:00:12.730Z,79.50
2023-03-28T02:03:06.870Z,79.50
2023-03-28T02:05:58.453Z,80.30
2023-03-28T02:08:49.561Z,80.40
2023-03-28T02:11:40.936Z,81.70
2023-03-28T02:14:36.387Z,81.40
2023-03-28T02:17:29.069Z,81.70
2023-03-28T02:20:20.604Z,81.50
2023-03-28T02:23:12.678Z,82.00
2023-03-28T02:26:01.457Z,82.60
2023-03-28T02:28:54.526Z,82.90
2023-03-28T02:31:42.985Z,82.50
2023-03-28T02:34:32.316Z,82.10
2023-03-28T02:37:32.105Z,83.00
2023-03-28T02:40:35.441Z,83.00
2023-03-28T02:43:48.592Z,82.20
2023-03-28T02:46:48.361Z,82.00
2023-03-28T02:49:50.333Z,81.00
2023-03-28T02:52:51.598Z,80.30
2023-03-28T02:55:46.308Z,81.20
2023-03-28T02:58:40.150Z,81.80
2023-03-28T03:01:29.543Z,81.60
2023-03-28T03:04:19.431Z,81.20
2023-03-28T03:07:09.535Z,81.20
2023-03-28T03:09:58.063Z,81.20
2023-03-28T03:12:47.356Z,81.60
2023-03-28T03:15:35.907Z,81.20
2023-03-28T03:18:24.578Z,81.90
2023-03-28T03:21:14.397Z,81.80
2023-03-28T03:24:03.105Z,82.30
2023-03-28T03:26:51.554Z,83.70
2023-03-28T03:29:40.326Z,85.00
2023-03-28T03:32:29.127Z,85.70
2023-03-28T03:35:17.750Z,86.40
2023-03-28T03:38:07.649Z,85.10
2023-03-28T03:40:56.067Z,85.40
2023-03-28T03:43:47.047Z,83.90
2023-03-28T03:46:35.796Z,84.10
2023-03-28T03:49:24.434Z,85.20
2023-03-28T03:52:13.165Z,85.00
2023-03-28T03:55:03.095Z,84.90
2023-03-28T03:57:51.522Z,84.50
2023-03-28T04:00:40.106Z,83.80
2023-03-28T04:03:28.870Z,85.20
2023-03-28T04:06:17.355Z,85.50
2023-03-28T04:09:06.342Z,87.10
2023-03-28T04:11:56.844Z,86.90
2023-03-28T04:14:45.371Z,86.60
2023-03-28T04:17:35.523Z,86.30
2023-03-28T04:20:24.492Z,86.60
2023-03-28T04:23:12.935Z,87.80
2023-03-28T04:26:02.573Z,85.90
2023-03-28T04:28:52.692Z,84.70
2023-03-28T04:31:41.346Z,83.50
2023-03-28T04:34:30.889Z,84.40
2023-03-28T04:37:19.992Z,84.10
2023-03-28T04:40:11.360Z,84.50
2023-03-28T04:42:59.852Z,84.50
2023-03-28T04:45:49.914Z,85.20
2023-03-28T04:48:38.709Z,85.10
2023-03-28T04:51:28.700Z,85.00
2023-03-28T04:54:17.502Z,84.60
2023-03-28T04:57:06.140Z,84.60
2023-03-28T04:59:54.680Z,84.90
2023-03-28T05:02:44.654Z,85.80
2023-03-28T05:05:33.767Z,86.10
2023-03-28T05:08:24.912Z,86.30
2023-03-28T05:11:13.345Z,86.40
2023-03-28T05:14:01.877Z,87.60
2023-03-28T05:16:50.366Z,87.50
2023-03-28T05:19:40.370Z,87.90
2023-03-28T05:22:28.877Z,88.00
2023-03-28T05:25:17.535Z,87.40
2023-03-28T05:28:06.524Z,87.80
2023-03-28T05:30:54.994Z,88.60
2023-03-28T05:33:43.380Z,88.90
2023-03-28T05:36:33.209Z,89.70
2023-03-28T05:39:21.782Z,89.40
2023-03-28T05:42:10.374Z,88.80
2023-03-28T05:44:58.865Z,88.80
2023-03-28T05:47:47.442Z,89.60
2023-03-28T05:50:36.418Z,89.80
2023-03-28T05:53:26.573Z,90.10
2023-03-28T05:56:15.035Z,89.60
2023-03-28T05:59:03.678Z,89.40
2023-03-28T06:01:52.674Z,88.70
2023-03-28T06:04:41.248Z,89.10
2023-03-28T06:07:41.302Z,88.70
2023-03-28T06:10:32.285Z,90.10
2023-03-28T06:13:20.734Z,90.50
2023-03-28T06:16:09.688Z,90.70
2023-03-28T06:19:10.367Z,90.60
2023-03-28T06:21:59.236Z,90.60
2023-03-28T06:24:47.653Z,90.50
2023-03-28T06:27:37.494Z,90.90
2023-03-28T06:30:26.005Z,90.90
2023-03-28T06:33:14.453Z,90.90
2023-03-28T06:36:03.310Z,90.90
2023-03-28T06:38:53.451Z,90.50
2023-03-28T06:41:42.021Z,90.60
2023-03-28T06:44:32.088Z,90.30
2023-03-28T06:47:20.653Z,90.30
2023-03-28T06:50:10.152Z,90.70
2023-03-28T06:52:59.075Z,91.20
2023-03-28T06:55:47.535Z,90.80
2023-03-28T06:58:35.957Z,90.30
2023-03-28T07:01:25.873Z,90.10
2023-03-28T07:04:14.418Z,90.10
2023-03-28T07:07:02.862Z,88.40
2023-03-28T07:09:52.773Z,87.20
2023-03-28T07:12:41.269Z,87.40
2023-03-28T07:15:29.779Z,86.80
2023-03-28T07:18:19.729Z,85.80
2023-03-28T07:21:09.555Z,86.60
2023-03-28T07:23:58.231Z,85.80
2023-03-28T07:26:46.659Z,87.00
2023-03-28T07:29:35.113Z,85.60
2023-03-28T07:32:23.671Z,84.20
2023-03-28T07:35:13.656Z,79.80
2023-03-28T07:38:02.219Z,80.40
2023-03-28T07:40:50.778Z,76.90
2023-03-28T07:43:40.146Z,78.90
2023-03-28T07:46:29.547Z,78.40
2023-03-28T07:49:19.977Z,77.90
2023-03-28T07:52:09.917Z,78.10
2023-03-28T07:54:58.372Z,78.10
2023-03-28T07:57:47.018Z,78.50
2023-03-28T08:00:35.586Z,77.50
2023-03-28T08:03:24.420Z,81.30
2023-03-28T08:06:30.898Z,91.40
2023-03-28T08:09:21.736Z,80.60
2023-03-28T08:12:10.230Z,85.40
2023-03-28T08:14:58.792Z,77.60
2023-03-28T08:17:47.553Z,79.60
2023-03-28T08:20:36.066Z,78.80
2023-03-28T08:23:24.561Z,80.00
2023-03-28T08:26:14.842Z,81.00
2023-03-28T08:29:03.573Z,80.80
2023-03-28T08:31:52.073Z,79.20
2023-03-28T08:34:40.619Z,78.60
2023-03-28T08:37:29.273Z,79.10
2023-03-28T08:40:21.184Z,79.10
2023-03-28T08:43:38.096Z,80.00
2023-03-28T08:46:29.496Z,80.00
2023-03-28T08:49:19.294Z,80.50
2023-03-28T08:52:09.131Z,80.70
2023-03-28T08:55:01.528Z,80.50
2023-03-28T08:57:53.932Z,80.20
2023-03-28T09:00:43.798Z,81.40
2023-03-28T09:03:34.675Z,79.60
2023-03-28T09:06:29.564Z,79.80
2023-03-28T09:09:34.188Z,79.10
2023-03-28T09:12:35.433Z,79.50
2023-03-28T09:15:32.840Z,78.30
2023-03-28T09:18:44.096Z,82.50
2023-03-28T09:21:39.384Z,80.50
2023-03-28T09:24:44.862Z,80.00
2023-03-28T09:27:37.700Z,78.40
2023-03-28T09:30:32.468Z,76.60
2023-03-28T09:33:28.941Z,74.70
2023-03-28T09:36:25.950Z,75.80
2023-03-28T09:39:27.026Z,76.10
2023-03-28T09:42:20.575Z,74.50
2023-03-28T09:45:18.639Z,75.80
2023-03-28T09:48:14.229Z,75.50
2023-03-28T09:51:03.504Z,70.20
2023-03-28T09:53:53.267Z,70.20
2023-03-28T09:56:44.812Z,70.20
2023-03-28T09:59:35.095Z,73.80
2023-03-28T10:02:29.335Z,71.90
2023-03-28T10:05:36.822Z,69.80
2023-03-28T10:08:28.114Z,70.80
2023-03-28T10:11:19.387Z,68.30
2023-03-28T10:14:31.628Z,68.20
2023-03-28T10:17:28.673Z,66.00
2023-03-28T10:20:21.540Z,67.40
2023-03-28T10:23:14.248Z,67.70
2023-03-28T10:26:04.846Z,68.20
2023-03-28T10:28:57.556Z,68.90
2023-03-28T10:31:50.978Z,70.60
2023-03-28T10:34:39.549Z,70.80
2023-03-28T10:37:29.611Z,67.80
2023-03-28T10:40:27.550Z,69.90
2023-03-28T10:43:16.823Z,69.90
2023-03-28T10:46:14.217Z,69.90
2023-03-28T10:49:05.850Z,69.50
2023-03-28T10:51:54.385Z,67.10
2023-03-28T10:54:57.674Z,67.70
2023-03-28T10:57:55.146Z,64.90
2023-03-28T11:00:45.934Z,62.80
2023-03-28T11:03:47.548Z,63.80
2023-03-28T11:06:40.399Z,63.60
2023-03-28T11:12:43.847Z,61.30
2023-03-28T11:15:50.160Z,61.50
2023-03-28T11:18:53.740Z,60.80
2023-03-28T11:21:52.261Z,61.10
2023-03-28T11:24:47.524Z,62.30
2023-03-28T11:27:41.843Z,63.10
2023-03-28T11:30:33.904Z,61.40
2023-03-28T11:33:29.581Z,58.20
2023-03-28T11:36:24.878Z,59.10
2023-03-28T11:39:20.630Z,60.10
2023-03-28T11:42:14.247Z,61.40
2023-03-28T11:45:08.064Z,60.30
2023-03-28T11:48:05.938Z,57.80
2023-03-28T11:51:02.305Z,58.20
2023-03-28T11:53:57.425Z,58.70
2023-03-28T11:56:53.789Z,58.50
2023-03-28T11:59:50.629Z,57.00
2023-03-28T12:02:43.367Z,57.50
2023-03-28T12:08:28.455Z,63.40
2023-03-28T12:11:24.953Z,77.30
2023-03-28T12:14:29.441Z,58.60
2023-03-28T12:17:23.094Z,63.50
2023-03-28T12:20:17.605Z,60.50
2023-03-28T12:23:11.754Z,58.80
2023-03-28T12:28:58.871Z,69.10
2023-03-28T12:31:52.206Z,67.30
2023-03-28T12:34:44.949Z,59.80
2023-03-28T12:37:39.781Z,57.30
2023-03-28T12:40:38.169Z,58.80
2023-03-28T12:43:31.621Z,55.60
2023-03-28T12:46:24.318Z,56.70
2023-03-28T12:49:17.722Z,58.10
2023-03-28T12:52:08.487Z,54.00
2023-03-28T12:55:01.720Z,56.20
2023-03-28T12:57:50.647Z,54.60
2023-03-28T13:00:48.140Z,55.20
2023-03-28T13:03:46.954Z,55.20
2023-03-28T13:06:43.708Z,55.60
2023-03-28T13:09:49.640Z,57.10
2023-03-28T13:13:00.154Z,56.80
2023-03-28T13:16:02.969Z,55.60
2023-03-28T13:19:06.180Z,51.10
2023-03-28T13:21:57.712Z,53.60
2023-03-28T13:24:46.190Z,51.80
2023-03-28T13:27:36.039Z,52.40
2023-03-28T13:30:26.572Z,54.60
2023-03-28T13:33:22.184Z,52.20
2023-03-28T13:36:26.030Z,50.30
2023-03-28T13:39:24.208Z,54.50
2023-03-28T13:42:29.267Z,54.60
2023-03-28T13:45:25.554Z,54.10
2023-03-28T13:48:14.615Z,55.10
2023-03-28T13:51:07.507Z,56.30
2023-03-28T13:53:57.540Z,56.00
2023-03-28T13:56:47.923Z,54.60
2023-03-28T13:59:38.826Z,52.50
2023-03-28T14:02:38.159Z,49.60
2023-03-28T14:05:28.069Z,50.60
2023-03-28T14:08:25.430Z,48.70
2023-03-28T14:11:18.015Z,50.60
2023-03-28T14:14:11.016Z,52.50
2023-03-28T14:17:02.653Z,52.90
2023-03-28T14:19:53.852Z,50.20
2023-03-28T14:22:56.898Z,52.80
2023-03-28T14:25:49.834Z,54.40
2023-03-28T14:28:41.978Z,54.70
2023-03-28T14:31:33.153Z,55.80
2023-03-28T14:34:25.433Z,58.00
2023-03-28T14:37:18.426Z,58.80
2023-03-28T14:40:19.707Z,66.10
2023-03-28T14:43:19.769Z,57.10
2023-03-28T14:46:11.577Z,55.90
2023-03-28T14:49:02.996Z,56.60
2023-03-28T14:51:56.341Z,56.50
2023-03-28T14:54:48.018Z,61.90
2023-03-28T14:57:38.102Z,54.40
2023-03-28T15:03:24.124Z,55.30
2023-03-28T15:06:16.485Z,57.00
2023-03-28T15:09:12.344Z,56.10
2023-03-28T15:12:05.424Z,57.10
2023-03-28T15:14:54.597Z,58.00
2023-03-28T15:17:43.526Z,56.00
2023-03-28T15:20:36.190Z,56.20
2023-03-28T15:23:29.093Z,56.30
2023-03-28T15:26:25.570Z,56.40
2023-03-28T15:29:17.142Z,56.00
2023-03-28T15:35:00.799Z,55.60
2023-03-28T15:37:50.893Z,57.40
2023-03-28T15:40:41.833Z,57.80
2023-03-28T15:43:37.775Z,59.00
2023-03-28T15:46:32.112Z,58.20
2023-03-28T15:49:20.885Z,58.00
2023-03-28T15:52:17.516Z,55.50
2023-03-28T15:55:08.203Z,56.70
2023-03-28T15:57:57.935Z,58.70
2023-03-28T16:00:49.077Z,58.90
2023-03-28T16:03:37.665Z,59.50
2023-03-28T16:06:32.134Z,59.90
2023-03-28T16:09:23.109Z,60.70
2023-03-28T16:12:15.889Z,59.70
2023-03-28T16:15:05.563Z,59.10
2023-03-28T16:17:55.772Z,57.30
2023-03-28T16:20:45.379Z,58.10
2023-03-28T16:23:33.904Z,59.50
2023-03-28T16:26:22.421Z,59.50
2023-03-28T16:29:12.488Z,59.60
2023-03-28T16:32:01.018Z,59.60
2023-03-28T16:34:50.701Z,59.10
2023-03-28T16:37:39.415Z,59.60
2023-03-28T16:40:28.253Z,59.50
2023-03-28T16:43:16.933Z,59.00
2023-03-28T16:46:07.154Z,59.10
2023-03-28T16:48:55.980Z,59.10
2023-03-28T16:51:44.461Z,60.00
2023-03-28T16:54:33.054Z,62.10
2023-03-28T16:57:22.057Z,63.10
2023-03-28T17:00:14.096Z,63.40
2023-03-28T17:03:05.255Z,63.90
2023-03-28T17:05:54.870Z,64.10
2023-03-28T17:08:43.372Z,63.40
2023-03-28T17:11:32.905Z,63.60
2023-03-28T17:14:22.077Z,64.40
2023-03-28T17:17:10.723Z,65.10
2023-03-28T17:20:01.395Z,66.20
2023-03-28T17:22:50.543Z,66.30
2023-03-28T17:25:44.922Z,66.60
2023-03-28T17:28:43.379Z,67.70
2023-03-28T17:31:32.456Z,68.90
2023-03-28T17:34:21.454Z,68.90
2023-03-28T17:37:11.543Z,68.50
2023-03-28T17:40:00.244Z,68.60
2023-03-28T17:42:48.688Z,69.10
2023-03-28T17:45:37.318Z,68.80
2023-03-28T17:48:25.947Z,74.90
2023-03-28T17:51:15.357Z,72.80
2023-03-28T17:54:08.273Z,71.90
2023-03-28T17:56:56.718Z,71.10
2023-03-28T17:59:45.152Z,70.90
2023-03-28T18:02:33.712Z,71.00
2023-03-28T18:05:22.398Z,72.00
2023-03-28T18:08:11.139Z,71.90
2023-03-28T18:11:05.455Z,72.10
2023-03-28T18:13:57.108Z,72.50
2023-03-28T18:16:46.127Z,73.10
2023-03-28T18:19:35.654Z,73.00
2023-03-28T18:22:24.135Z,73.70
2023-03-28T18:25:12.553Z,74.10
2023-03-28T18:28:03.226Z,74.90
2023-03-28T18:30:51.813Z,75.20
2023-03-28T18:33:40.534Z,75.50
2023-03-28T18:36:29.071Z,76.00
2023-03-28T18:39:17.809Z,75.80
2023-03-28T18:42:07.523Z,75.90
2023-03-28T18:44:57.919Z,76.70
2023-03-28T18:47:46.611Z,76.70
2023-03-28T18:50:35.063Z,76.40
2023-03-28T18:53:25.155Z,75.70
2023-03-28T18:56:14.377Z,75.00
2023-03-28T18:59:04.069Z,75.60
2023-03-28T19:01:54.103Z,76.70
2023-03-28T19:04:42.711Z,77.10
2023-03-28T19:07:31.185Z,78.10
2023-03-28T19:10:19.775Z,78.30
2023-03-28T19:13:08.264Z,78.20
2023-03-28T19:16:00.585Z,77.30
2023-03-28T19:18:50.601Z,78.00
2023-03-28T19:21:39.012Z,77.90
2023-03-28T19:24:27.406Z,78.10
2023-03-28T19:27:15.932Z,77.40
2023-03-28T19:30:05.672Z,77.50
2023-03-28T19:32:54.215Z,78.30
2023-03-28T19:35:44.075Z,78.50
2023-03-28T19:38:34.913Z,78.60
2023-03-28T19:41:24.972Z,79.40
2023-03-28T19:44:13.498Z,81.60
2023-03-28T19:47:02.141Z,82.90
2023-03-28T19:49:50.685Z,83.90
2023-03-28T19:52:42.520Z,83.90
2023-03-28T19:55:31.010Z,84.50
2023-03-28T19:58:19.467Z,84.80
2023-03-28T20:01:08.163Z,84.80
2023-03-28T20:03:56.700Z,84.50
2023-03-28T20:06:45.295Z,84.60
2023-03-28T20:09:35.758Z,84.80
2023-03-28T20:12:24.229Z,85.00
2023-03-28T20:15:13.003Z,84.90
2023-03-28T20:18:01.885Z,85.10
2023-03-28T20:20:51.934Z,86.00
2023-03-28T20:23:40.688Z,86.60
2023-03-28T20:26:31.737Z,86.80
2023-03-28T20:29:23.047Z,86.20
2023-03-28T20:32:11.540Z,86.80
2023-03-28T20:35:00.185Z,87.30
2023-03-28T20:37:48.706Z,87.70
2023-03-28T20:40:41.096Z,87.70
2023-03-28T20:43:36.797Z,87.20
2023-03-28T20:46:25.303Z,87.00
2023-03-28T20:49:14.203Z,86.60
2023-03-28T20:52:02.703Z,87.60
2023-03-28T20:54:51.842Z,87.30
2023-03-28T20:57:42.404Z,88.10
2023-03-28T21:00:33.736Z,88.30
2023-03-28T21:03:22.325Z,88.80
2023-03-28T21:06:12.860Z,88.30
2023-03-28T21:09:02.818Z,88.50
2023-03-28T21:11:51.274Z,88.70
2023-03-28T21:14:39.697Z,88.80
2023-03-28T21:17:29.620Z,88.80
2023-03-28T21:20:19.104Z,88.60
2023-03-28T21:23:07.619Z,89.40
2023-03-28T21:25:56.410Z,89.80
2023-03-28T21:28:45.424Z,90.00
2023-03-28T21:31:34.057Z,89.70
2023-03-28T21:34:30.512Z,89.50
2023-03-28T21:37:18.927Z,90.30
2023-03-28T21:40:08.767Z,90.60
2023-03-28T21:42:57.267Z,90.70
2023-03-28T21:45:46.381Z,90.40
2023-03-28T21:48:35.147Z,90.20
2023-03-28T21:51:25.832Z,89.80
2023-03-28T21:54:14.261Z,90.00
2023-03-28T21:57:02.722Z,89.80
2023-03-28T21:59:51.243Z,89.20
2023-03-28T22:02:39.722Z,89.70
2023-03-28T22:05:29.957Z,90.40
2023-03-28T22:08:20.328Z,90.50
2023-03-28T22:11:14.659Z,90.60
2023-03-28T22:14:04.756Z,90.50
2023-03-28T22:16:53.597Z,90.70
2023-03-28T22:19:42.073Z,90.60
2023-03-28T22:22:30.519Z,90.70
2023-03-28T22:25:22.552Z,90.50
2023-03-28T22:28:12.575Z,90.30
2023-03-28T22:31:01.174Z,90.20
2023-03-28T22:33:49.848Z,90.20
2023-03-28T22:36:38.320Z,90.20
2023-03-28T22:39:27.120Z,90.60
2023-03-28T22:42:17.564Z,90.70
2023-03-28T22:45:06.852Z,90.40
2023-03-28T22:47:58.501Z,90.20
2023-03-28T22:50:47.723Z,90.30
2023-03-28T22:53:37.239Z,90.50
2023-03-28T22:56:25.696Z,90.80
2023-03-28T22:59:15.567Z,91.10
2023-03-28T23:02:04.174Z,91.10
2023-03-28T23:04:54.272Z,91.20
2023-03-28T23:07:42.899Z,91.00
2023-03-28T23:10:32.008Z,90.90
2023-03-28T23:13:20.509Z,90.80
2023-03-28T23:16:12.019Z,90.70
2023-03-28T23:19:00.785Z,91.00
2023-03-28T23:21:50.265Z,91.30
2023-03-28T23:24:38.924Z,92.00
2023-03-28T23:27:27.341Z,92.20
2023-03-28T23:30:17.201Z,92.00
2023-03-28T23:33:07.449Z,91.60
2023-03-28T23:35:56.271Z,92.20
2023-03-28T23:38:44.759Z,92.20
2023-03-28T23:41:33.187Z,91.80
2023-03-28T23:44:21.619Z,91.60
2023-03-28T23:47:12.460Z,91.50
2023-03-28T23:50:02.329Z,91.30
2023-03-28T23:52:50.789Z,91.00
2023-03-28T23:55:40.339Z,91.00
2023-03-28T23:58:28.850Z,90.90
